Time;durP1;ratioP1;P1;durP2;ratioP2;P2;SDS_P1;SDS_P2;PMS_P1;PMS_P2;Temp;Humidity;BMP_temperature;BMP_pressure;BME280_temperature;BME280_humidity;BME280_pressure;Samples;Min_cycle;Max_cycle;Signal;HPM_P1;HPM_P2
2021/06/15 00:01:49;;;;;;;3.80;3.38;;;13.60;74.20;;;;;;5015728;28;20139;-78
2021/06/15 00:04:15;;;;;;;7.25;3.47;;;13.80;73.60;;;;;;5016317;28;20036;-78
2021/06/15 00:06:41;;;;;;;5.32;3.65;;;13.80;73.10;;;;;;5015515;28;20021;-77
2021/06/15 00:09:06;;;;;;;4.95;3.60;;;13.90;73.10;;;;;;5015739;28;20026;-77
2021/06/15 00:11:32;;;;;;;5.07;3.45;;;13.90;72.50;;;;;;5017980;28;20112;-76
2021/06/15 00:13:57;;;;;;;5.68;3.40;;;13.90;72.10;;;;;;5021977;28;20029;-78
2021/06/15 00:16:23;;;;;;;3.92;3.53;;;13.90;72.90;;;;;;5019499;28;20046;-77
2021/06/15 00:18:49;;;;;;;3.75;3.13;;;13.90;73.80;;;;;;5022109;28;20091;-77
2021/06/15 00:21:14;;;;;;;5.13;3.42;;;13.90;74.70;;;;;;5023168;28;20036;-77
2021/06/15 00:23:40;;;;;;;5.68;3.83;;;13.70;74.00;;;;;;5018809;28;20148;-78
2021/06/15 00:26:06;;;;;;;3.75;3.35;;;13.80;73.90;;;;;;5016807;28;20025;-78
2021/06/15 00:28:32;;;;;;;5.15;3.22;;;13.60;74.90;;;;;;5017168;28;20076;-78
2021/06/15 00:30:57;;;;;;;4.18;3.42;;;13.50;75.80;;;;;;5012167;28;20049;-77
2021/06/15 00:33:24;;;;;;;4.70;3.80;;;13.50;74.60;;;;;;5017335;28;20041;-78
2021/06/15 00:35:50;;;;;;;5.82;3.20;;;13.60;74.20;;;;;;5011706;28;22038;-78
2021/06/15 00:38:16;;;;;;;3.70;3.35;;;13.60;74.90;;;;;;5016183;28;20036;-78
2021/06/15 00:40:42;;;;;;;4.35;3.53;;;13.40;75.60;;;;;;5015948;28;20081;-78
2021/06/15 00:43:07;;;;;;;4.65;3.45;;;13.40;75.50;;;;;;5020665;28;20807;-78
2021/06/15 00:45:33;;;;;;;5.47;3.28;;;13.30;76.10;;;;;;5019151;28;20116;-78
2021/06/15 00:47:59;;;;;;;3.60;2.88;;;13.20;76.10;;;;;;5023448;28;20056;-77
2021/06/15 00:50:27;;;;;;;6.15;3.40;;;13.30;75.70;;;;;;5024958;28;20026;-77
2021/06/15 00:52:53;;;;;;;5.95;3.60;;;13.30;75.10;;;;;;5019499;28;20034;-78
2021/06/15 00:55:24;;;;;;;7.38;3.47;;;13.40;74.10;;;;;;5020287;28;20032;-78
2021/06/15 00:57:50;;;;;;;3.90;3.35;;;13.30;74.50;;;;;;5017511;28;20037;-78
2021/06/15 01:00:17;;;;;;;4.53;3.08;;;13.00;75.60;;;;;;5022451;28;20415;-78
2021/06/15 01:02:43;;;;;;;4.15;3.42;;;12.80;76.90;;;;;;5039550;28;20045;-77
2021/06/15 01:05:11;;;;;;;3.88;3.17;;;12.70;77.50;;;;;;5052489;28;20441;-78
2021/06/15 01:07:55;;;;;;;;;;;12.70;77.70;;;;;;5052346;28;20055;-78
2021/06/15 01:10:41;;;;;;;5.75;3.40;;;12.70;77.50;;;;;;5049935;28;19921;-77
2021/06/15 01:13:16;;;;;;;4.53;3.40;;;12.50;77.90;;;;;;5041597;28;20029;-78
2021/06/15 01:16:00;;;;;;;4.75;3.42;;;12.40;77.80;;;;;;5048854;28;20078;-76
2021/06/15 01:18:27;;;;;;;3.88;3.45;;;12.40;78.60;;;;;;5041443;28;20029;-77
2021/06/15 01:20:57;;;;;;;4.57;3.80;;;12.30;78.50;;;;;;5047618;28;20419;-78
2021/06/15 01:23:41;;;;;;;5.13;3.30;;;12.30;79.10;;;;;;5043921;28;20025;-76
2021/06/15 01:26:44;;;;;;;6.25;3.63;;;12.30;79.30;;;;;;5041103;28;20029;-77
2021/06/15 01:29:17;;;;;;;5.47;3.20;;;12.20;78.70;;;;;;5043694;28;20486;-78
2021/06/15 01:31:47;;;;;;;3.72;3.28;;;12.30;78.50;;;;;;5034532;28;20172;-77
2021/06/15 01:34:22;;;;;;;4.32;3.63;;;12.20;78.90;;;;;;5029746;28;20033;-77
2021/06/15 01:37:16;;;;;;;6.13;3.40;;;12.20;79.50;;;;;;5028624;28;20052;-76
2021/06/15 01:39:49;;;;;;;4.60;3.60;;;12.30;78.50;;;;;;5025627;28;20033;-78
2021/06/15 01:42:26;;;;;;;5.25;3.30;;;12.30;78.50;;;;;;5029572;28;20036;-78
2021/06/15 01:45:07;;;;;;;5.82;2.90;;;12.20;78.40;;;;;;5021626;28;20037;-77
2021/06/15 01:47:35;;;;;;;4.00;2.88;;;12.20;77.90;;;;;;5028810;28;20029;-77
2021/06/15 01:50:07;;;;;;;4.05;3.13;;;12.30;78.70;;;;;;5027283;28;20642;-78
2021/06/15 01:52:36;;;;;;;4.10;3.08;;;12.10;78.60;;;;;;5020147;28;20040;-78
2021/06/15 01:55:05;;;;;;;;;;;12.00;80.00;;;;;;5022704;28;20541;-77
2021/06/15 01:57:32;;;;;;;5.38;3.20;;;12.00;80.40;;;;;;5029492;28;19909;-77
2021/06/15 02:00:00;;;;;;;5.30;3.38;;;12.00;80.20;;;;;;5019397;28;20041;-77
2021/06/15 02:02:28;;;;;;;5.72;3.78;;;12.00;80.40;;;;;;5025341;28;20072;-77
2021/06/15 02:04:56;;;;;;;5.88;3.28;;;12.10;79.40;;;;;;5022039;28;20592;-76
2021/06/15 02:07:27;;;;;;;6.00;3.58;;;12.00;79.40;;;;;;5021061;28;20516;-78
2021/06/15 02:09:57;;;;;;;4.65;3.25;;;11.90;80.60;;;;;;5020098;28;20025;-77
2021/06/15 02:12:27;;;;;;;6.00;3.72;;;11.80;80.90;;;;;;5027100;28;20029;-77
2021/06/15 02:14:55;;;;;;;4.40;3.53;;;11.70;81.10;;;;;;5020308;28;20022;-78
2021/06/15 02:17:24;;;;;;;4.37;3.30;;;11.70;80.50;;;;;;5024853;28;20029;-76
2021/06/15 02:19:50;;;;;;;3.78;3.22;;;11.80;80.00;;;;;;5020914;28;20030;-77
2021/06/15 02:22:19;;;;;;;4.05;3.20;;;11.80;79.90;;;;;;5023861;28;20750;-76
2021/06/15 02:24:46;;;;;;;;;;;11.80;79.80;;;;;;5028129;28;20026;-77
2021/06/15 02:27:15;;;;;;;5.63;3.33;;;11.80;80.20;;;;;;5026083;28;19920;-77
2021/06/15 02:29:41;;;;;;;4.13;2.90;;;11.70;80.50;;;;;;5030683;28;20021;-79
2021/06/15 02:32:09;;;;;;;4.70;3.22;;;11.60;80.60;;;;;;5021612;28;20516;-78
2021/06/15 02:34:37;;;;;;;3.50;2.92;;;11.50;82.50;;;;;;5020578;28;20022;-77
2021/06/15 02:37:07;;;;;;;3.88;3.33;;;11.50;81.40;;;;;;5017682;28;20034;-77
2021/06/15 02:39:34;;;;;;;4.43;3.40;;;11.60;80.00;;;;;;5020839;28;20033;-77
2021/06/15 02:42:03;;;;;;;3.78;3.08;;;11.70;79.80;;;;;;5023133;28;20108;-78
2021/06/15 02:44:32;;;;;;;4.80;3.20;;;11.70;79.30;;;;;;5018386;28;20065;-77
2021/06/15 02:46:58;;;;;;;4.35;3.10;;;11.80;79.20;;;;;;5017173;28;20396;-78
2021/06/15 02:49:29;;;;;;;5.82;3.20;;;11.70;79.60;;;;;;5019343;28;20026;-77
2021/06/15 02:52:11;;;;;;;4.82;2.60;;;11.60;79.40;;;;;;5020532;28;20026;-76
2021/06/15 02:54:53;;;;;;;3.50;2.55;;;11.70;77.30;;;;;;5024819;28;20017;-77
2021/06/15 02:57:21;;;;;;;3.80;3.10;;;11.70;75.60;;;;;;5020191;28;20036;-77
2021/06/15 02:59:47;;;;;;;3.85;3.00;;;11.70;77.60;;;;;;5016487;28;20025;-77
2021/06/15 03:02:13;;;;;;;4.93;3.08;;;11.70;77.20;;;;;;5017989;28;20041;-76
2021/06/15 03:04:39;;;;;;;4.18;2.90;;;11.70;78.10;;;;;;5022050;28;20025;-77
2021/06/15 03:07:04;;;;;;;4.07;3.13;;;11.60;79.60;;;;;;5020989;28;20035;-76
2021/06/15 03:09:30;;;;;;;5.43;3.90;;;11.40;80.30;;;;;;5014745;28;20025;-77
2021/06/15 03:12:09;;;;;;;4.68;3.40;;;11.30;81.20;;;;;;5022450;28;20095;-76
2021/06/15 03:14:37;;;;;;;5.47;3.35;;;11.20;80.80;;;;;;5018173;28;20030;-77
2021/06/15 03:17:04;;;;;;;;;;;11.20;81.10;;;;;;5020356;28;20083;-78
2021/06/15 03:19:48;;;;;;;6.78;3.78;;;11.30;81.90;;;;;;5019760;28;20028;-77
2021/06/15 03:22:29;;;;;;;4.63;3.60;;;11.30;81.70;;;;;;5021680;28;20033;-77
2021/06/15 03:25:04;;;;;;;4.47;3.53;;;11.30;81.40;;;;;;5020222;28;20093;-77
2021/06/15 03:27:34;;;;;;;6.00;3.60;;;11.40;80.30;;;;;;5017473;28;20476;-77
2021/06/15 03:30:10;;;;;;;3.78;3.40;;;11.40;79.30;;;;;;5017571;28;20451;-77
2021/06/15 03:33:03;;;;;;;3.92;3.35;;;11.60;78.80;;;;;;5022531;28;20056;-78
2021/06/15 03:35:32;;;;;;;5.57;3.25;;;11.60;78.30;;;;;;5019221;28;20017;-77
2021/06/15 03:37:59;;;;;;;;;;;11.60;77.90;;;;;;5023551;28;20024;-77
2021/06/15 03:40:27;;;;;;;7.22;3.42;;;11.60;78.90;;;;;;5015502;28;20415;-77
2021/06/15 03:42:56;;;;;;;3.53;2.92;;;11.50;79.40;;;;;;5023498;28;20040;-77
2021/06/15 03:45:28;;;;;;;3.30;2.90;;;11.60;79.30;;;;;;5021544;28;20048;-77
2021/06/15 03:47:55;;;;;;;4.32;3.30;;;11.70;79.60;;;;;;5020486;28;20089;-78
2021/06/15 03:50:22;;;;;;;5.07;3.78;;;11.70;79.30;;;;;;5023143;28;20069;-78
2021/06/15 03:52:52;;;;;;;5.68;4.00;;;11.70;80.40;;;;;;5025981;28;20033;-76
2021/06/15 03:55:19;;;;;;;6.13;3.58;;;11.70;81.30;;;;;;5015971;28;20025;-77
2021/06/15 03:57:46;;;;;;;5.55;3.40;;;11.70;80.80;;;;;;5016935;28;20028;-78
2021/06/15 04:00:15;;;;;;;4.75;3.25;;;11.80;79.40;;;;;;5020949;28;20060;-78
2021/06/15 04:02:44;;;;;;;3.58;3.28;;;12.00;78.60;;;;;;5019185;28;20123;-78
2021/06/15 04:05:12;;;;;;;4.53;3.40;;;12.10;78.10;;;;;;5021688;28;20034;-78
2021/06/15 04:07:38;;;;;;;3.90;3.20;;;12.20;78.50;;;;;;5026913;28;20052;-78
2021/06/15 04:10:05;;;;;;;4.05;3.22;;;12.20;78.10;;;;;;5020508;28;20035;-78
2021/06/15 04:12:31;;;;;;;3.70;3.30;;;12.20;78.40;;;;;;5019526;28;20529;-78
2021/06/15 04:14:58;;;;;;;3.30;2.92;;;12.20;77.80;;;;;;5030013;28;20052;-77
2021/06/15 04:17:29;;;;;;;4.60;2.92;;;12.20;77.40;;;;;;5026466;28;20079;-78
2021/06/15 04:19:56;;;;;;;3.00;2.70;;;12.20;76.90;;;;;;5023929;28;20038;-79
2021/06/15 04:22:28;;;;;;;4.77;2.93;;;12.30;76.80;;;;;;5020484;28;20071;-78
2021/06/15 04:24:57;;;;;;;3.85;3.33;;;12.40;76.90;;;;;;5022688;28;20104;-79
2021/06/15 04:27:25;;;;;;;4.47;3.00;;;12.40;76.50;;;;;;5019720;28;20068;-78
2021/06/15 04:29:54;;;;;;;5.68;3.03;;;12.50;76.70;;;;;;5022903;28;20128;-78
2021/06/15 04:32:22;;;;;;;6.18;3.15;;;12.50;77.00;;;;;;5024387;28;20044;-78
2021/06/15 04:35:02;;;;;;;4.05;3.33;;;12.60;77.50;;;;;;5021758;28;20022;-78
2021/06/15 04:37:31;;;;;;;3.75;3.35;;;12.60;77.60;;;;;;5022475;28;20987;-79
2021/06/15 04:39:59;;;;;;;;;;;12.70;77.50;;;;;;5025903;28;20049;-78
2021/06/15 04:42:41;;;;;;;5.45;3.92;;;12.70;78.70;;;;;;5028625;28;19905;-78
2021/06/15 04:45:08;;;;;;;6.15;4.13;;;12.70;79.10;;;;;;5024271;28;20025;-78
2021/06/15 04:47:41;;;;;;;5.75;3.63;;;12.80;78.50;;;;;;5027113;28;20037;-78
2021/06/15 04:50:16;;;;;;;6.50;4.13;;;13.00;78.60;;;;;;5021449;28;20029;-78
2021/06/15 04:52:46;;;;;;;6.13;3.88;;;13.20;77.90;;;;;;5025005;28;20412;-80
2021/06/15 04:55:13;;;;;;;5.38;3.60;;;13.30;77.10;;;;;;5024397;28;20637;-79
2021/06/15 04:57:42;;;;;;;6.45;4.20;;;13.40;76.60;;;;;;5022491;28;20562;-78
2021/06/15 05:00:08;;;;;;;5.22;3.92;;;13.50;76.50;;;;;;5025656;28;20030;-78
2021/06/15 05:02:38;;;;;;;5.82;3.90;;;13.60;75.30;;;;;;5029951;28;20111;-78
2021/06/15 05:05:05;;;;;;;4.88;3.47;;;13.70;75.40;;;;;;5024171;28;20087;-78
2021/06/15 05:07:31;;;;;;;5.32;4.03;;;13.80;75.00;;;;;;5022485;28;20033;-77
2021/06/15 05:10:03;;;;;;;6.57;3.67;;;13.90;75.30;;;;;;5023833;28;20032;-78
2021/06/15 05:12:38;;;;;;;7.20;3.72;;;14.00;74.90;;;;;;5017851;28;20021;-78
2021/06/15 05:15:11;;;;;;;5.00;4.00;;;14.20;74.70;;;;;;5021386;28;20161;-79
2021/06/15 05:17:40;;;;;;;5.15;4.07;;;14.30;74.50;;;;;;5023338;28;20041;-78
2021/06/15 05:20:07;;;;;;;5.40;4.13;;;14.40;74.50;;;;;;5023209;28;20404;-79
2021/06/15 05:22:58;;;;;;;6.57;3.90;;;14.50;74.50;;;;;;5028877;28;20029;-78
2021/06/15 05:25:24;;;;;;;8.50;4.38;;;14.60;74.20;;;;;;5024152;28;20091;-77
2021/06/15 05:27:52;;;;;;;6.40;4.60;;;14.60;73.70;;;;;;5021437;28;20026;-78
2021/06/15 05:30:18;;;;;;;7.18;4.35;;;14.80;73.90;;;;;;5031004;28;20120;-78
2021/06/15 05:32:43;;;;;;;6.10;4.57;;;14.80;73.00;;;;;;5022218;28;20583;-77
2021/06/15 05:35:10;;;;;;;7.30;4.70;;;14.90;73.30;;;;;;5037884;28;20032;-78
2021/06/15 05:37:36;;;;;;;5.40;4.05;;;15.10;73.30;;;;;;5024154;28;20022;-78
2021/06/15 05:40:01;;;;;;;6.68;4.68;;;15.10;72.20;;;;;;5023045;28;20036;-78
2021/06/15 05:42:27;;;;;;;8.63;4.43;;;15.30;72.80;;;;;;5018201;28;20619;-78
2021/06/15 05:44:53;;;;;;;5.88;4.72;;;15.30;73.00;;;;;;5027124;28;20037;-79
2021/06/15 05:47:18;;;;;;;9.80;4.78;;;15.40;73.10;;;;;;5019851;28;20722;-78
2021/06/15 05:49:44;;;;;;;7.28;4.47;;;15.50;72.90;;;;;;5017896;28;20072;-78
2021/06/15 05:52:13;;;;;;;8.75;5.07;;;15.60;72.40;;;;;;5013145;28;20124;-78
2021/06/15 05:54:40;;;;;;;9.90;4.75;;;15.80;72.70;;;;;;5017638;28;20044;-79
2021/06/15 05:57:06;;;;;;;8.20;4.10;;;15.90;71.40;;;;;;5017931;28;20061;-80
2021/06/15 05:59:32;;;;;;;11.23;4.47;;;16.00;70.80;;;;;;5024446;28;20037;-77
2021/06/15 06:01:58;;;;;;;7.78;4.95;;;16.10;70.70;;;;;;5023259;28;20044;-78
2021/06/15 06:04:27;;;;;;;7.90;4.57;;;16.20;71.10;;;;;;5022919;28;20038;-79
2021/06/15 06:09:45;;;;;;;8.65;4.18;;;16.40;72.60;;;;;;5018088;28;20172;-78
2021/06/15 06:12:11;;;;;;;7.70;4.45;;;16.60;72.70;;;;;;5019993;28;20564;-78
2021/06/15 06:14:37;;;;;;;5.10;4.35;;;16.70;72.30;;;;;;5026149;28;20520;-78
2021/06/15 06:17:03;;;;;;;5.53;4.10;;;16.80;70.30;;;;;;5026635;28;20029;-79
2021/06/15 06:19:30;;;;;;;8.77;4.53;;;16.90;69.80;;;;;;5030987;28;20084;-79
2021/06/15 06:21:56;;;;;;;7.07;4.50;;;17.00;71.20;;;;;;5025916;28;20034;-79
2021/06/15 06:24:23;;;;;;;6.30;4.28;;;17.10;71.30;;;;;;5026514;28;20036;-78
2021/06/15 06:26:52;;;;;;;7.13;4.18;;;17.30;69.50;;;;;;5018736;28;20036;-79
2021/06/15 06:29:19;;;;;;;7.30;3.97;;;17.40;68.70;;;;;;5022450;28;20068;-78
2021/06/15 06:31:45;;;;;;;6.97;4.25;;;17.50;68.70;;;;;;5018733;28;20038;-79
2021/06/15 06:34:11;;;;;;;6.20;4.10;;;17.60;69.10;;;;;;5021283;28;20892;-79
2021/06/15 06:36:36;;;;;;;5.68;4.07;;;17.70;67.20;;;;;;5023178;28;20049;-78
2021/06/15 06:39:03;;;;;;;4.00;3.55;;;17.80;66.20;;;;;;5020567;28;20071;-79
2021/06/15 06:41:29;;;;;;;6.07;3.58;;;17.90;65.00;;;;;;5021265;28;20037;-78
2021/06/15 06:43:55;;;;;;;3.75;3.45;;;18.00;65.10;;;;;;5022678;28;20033;-79
2021/06/15 06:46:21;;;;;;;5.45;3.45;;;18.20;65.10;;;;;;5021454;28;20061;-78
2021/06/15 06:48:46;;;;;;;4.70;3.60;;;18.30;65.80;;;;;;5026826;28;20037;-78
2021/06/15 06:51:12;;;;;;;5.88;3.50;;;18.50;65.20;;;;;;5023654;28;20113;-79
2021/06/15 06:53:38;;;;;;;8.57;4.18;;;18.60;66.00;;;;;;5021287;28;20022;-79
2021/06/15 06:56:06;;;;;;;7.57;3.83;;;18.70;64.30;;;;;;5024229;28;20025;-79
2021/06/15 06:58:33;;;;;;;6.32;4.07;;;18.80;64.90;;;;;;5021825;28;20108;-78
2021/06/15 07:00:59;;;;;;;5.97;3.55;;;18.90;65.10;;;;;;5020923;28;20084;-76
2021/06/15 07:03:25;;;;;;;5.15;3.75;;;19.00;64.90;;;;;;5017734;28;20087;-78
2021/06/15 07:05:51;;;;;;;5.28;3.88;;;19.10;64.30;;;;;;5022735;28;20045;-78
2021/06/15 07:08:16;;;;;;;6.82;3.28;;;19.10;63.10;;;;;;5019325;28;20022;-79
2021/06/15 07:10:42;;;;;;;5.25;3.03;;;19.30;62.10;;;;;;5016357;28;20033;-77
2021/06/15 07:13:08;;;;;;;7.18;3.80;;;19.40;64.50;;;;;;5023022;28;20542;-79
2021/06/15 07:15:33;;;;;;;7.25;3.75;;;19.50;64.40;;;;;;5022851;28;20094;-77
2021/06/15 07:17:59;;;;;;;5.55;3.78;;;19.70;63.30;;;;;;5026899;28;20108;-78
2021/06/15 07:20:25;;;;;;;5.40;3.22;;;19.80;63.60;;;;;;5022045;28;20396;-76
2021/06/15 07:22:51;;;;;;;5.18;3.60;;;20.00;61.90;;;;;;5024254;28;20174;-78
2021/06/15 07:25:16;;;;;;;5.93;3.47;;;20.00;62.40;;;;;;5026612;28;20117;-77
2021/06/15 07:27:42;;;;;;;9.45;4.05;;;20.20;62.20;;;;;;5025485;28;20030;-78
2021/06/15 07:30:09;;;;;;;7.18;3.30;;;20.30;60.10;;;;;;5022512;28;20033;-78
2021/06/15 07:32:35;;;;;;;4.60;3.35;;;20.40;60.50;;;;;;5020188;28;20049;-78
2021/06/15 07:35:00;;;;;;;4.22;3.17;;;20.50;59.90;;;;;;5021216;28;20489;-79
2021/06/15 07:37:26;;;;;;;5.75;2.95;;;20.60;60.10;;;;;;5022185;28;20105;-79
2021/06/15 07:39:52;;;;;;;5.18;3.10;;;20.80;60.40;;;;;;5019493;28;20033;-78
2021/06/15 07:42:17;;;;;;;4.75;3.10;;;20.90;60.50;;;;;;5022795;28;20018;-79
2021/06/15 07:44:43;;;;;;;5.45;3.20;;;20.90;59.80;;;;;;5021878;28;20091;-78
2021/06/15 07:47:08;;;;;;;4.57;3.10;;;21.10;58.90;;;;;;5022199;28;20052;-78
2021/06/15 07:49:34;;;;;;;4.88;3.42;;;21.20;58.70;;;;;;5019979;28;20033;-77
2021/06/15 07:52:00;;;;;;;5.07;3.13;;;21.20;58.20;;;;;;5020275;28;20060;-78
2021/06/15 07:54:26;;;;;;;6.07;3.20;;;21.30;59.00;;;;;;5017429;28;20026;-78
2021/06/15 07:56:51;;;;;;;10.15;3.30;;;21.50;56.60;;;;;;5017993;28;20025;-78
2021/06/15 07:59:17;;;;;;;4.78;2.83;;;21.50;57.70;;;;;;5023018;28;20021;-78
2021/06/15 08:01:43;;;;;;;7.82;3.05;;;21.50;54.70;;;;;;5019640;28;20041;-78
2021/06/15 08:04:13;;;;;;;7.70;3.30;;;21.60;56.40;;;;;;5022697;28;20401;-79
2021/06/15 08:06:39;;;;;;;8.77;3.70;;;21.80;55.80;;;;;;5015567;28;20057;-79
2021/06/15 08:09:04;;;;;;;4.85;3.55;;;21.70;55.80;;;;;;5036909;28;20060;-78
2021/06/15 08:11:30;;;;;;;10.60;3.95;;;21.80;57.70;;;;;;5023202;28;20140;-78
2021/06/15 08:13:56;;;;;;;4.15;3.60;;;21.90;53.70;;;;;;5020172;28;20049;-79
2021/06/15 08:16:22;;;;;;;8.05;3.85;;;22.00;56.40;;;;;;5017336;28;20041;-78
2021/06/15 08:18:47;;;;;;;8.38;4.38;;;22.20;59.30;;;;;;5016336;28;20525;-78
2021/06/15 08:21:13;;;;;;;6.95;4.30;;;22.30;58.30;;;;;;5011220;28;20037;-76
2021/06/15 08:23:39;;;;;;;6.80;3.80;;;22.40;57.70;;;;;;5022951;28;20045;-77
2021/06/15 08:26:05;;;;;;;8.00;4.80;;;22.50;57.50;;;;;;5019771;28;20671;-79
2021/06/15 08:28:31;;;;;;;7.80;4.10;;;22.50;54.00;;;;;;5017534;28;20492;-78
2021/06/15 08:30:57;;;;;;;4.80;3.95;;;22.50;56.60;;;;;;5016432;28;20033;-77
2021/06/15 08:33:24;;;;;;;5.13;3.30;;;22.60;53.80;;;;;;5023355;28;20037;-78
2021/06/15 08:35:49;;;;;;;9.80;3.65;;;22.50;51.70;;;;;;5023326;28;20033;-79
2021/06/15 08:38:18;;;;;;;6.72;3.10;;;22.60;54.10;;;;;;5025337;28;20048;-78
2021/06/15 08:40:45;;;;;;;7.88;3.30;;;22.60;50.40;;;;;;5022863;28;20369;-78
2021/06/15 08:43:11;;;;;;;5.00;2.90;;;22.70;48.40;;;;;;5030998;28;20025;-79
2021/06/15 08:45:39;;;;;;;6.85;2.92;;;22.80;53.40;;;;;;5037396;28;20025;-79
2021/06/15 08:48:05;;;;;;;2.50;2.30;;;22.90;44.60;;;;;;5026976;28;20075;-78
2021/06/15 08:50:31;;;;;;;3.78;2.40;;;22.90;43.40;;;;;;5024005;28;20052;-78
2021/06/15 08:52:57;;;;;;;5.00;2.40;;;23.00;44.70;;;;;;5019127;28;20021;-78
2021/06/15 08:55:28;;;;;;;4.65;2.38;;;23.00;44.70;;;;;;5021721;28;20033;-79
2021/06/15 08:58:10;;;;;;;5.18;2.10;;;23.10;43.70;;;;;;5035264;28;20067;-78
2021/06/15 09:00:36;;;;;;;3.95;2.17;;;23.20;41.20;;;;;;5030101;28;20030;-79
2021/06/15 09:03:01;;;;;;;4.15;2.83;;;23.30;47.40;;;;;;5028086;28;20470;-78
2021/06/15 09:05:27;;;;;;;6.30;2.30;;;23.40;46.80;;;;;;5022866;28;20027;-79
2021/06/15 09:08:00;;;;;;;2.88;2.30;;;23.30;43.70;;;;;;5027955;28;20079;-80
2021/06/15 09:10:46;;;;;;;3.45;2.35;;;23.40;43.80;;;;;;5040945;28;20056;-78
2021/06/15 09:13:38;;;;;;;5.22;2.53;;;23.50;43.60;;;;;;5025554;28;20032;-79
2021/06/15 09:16:35;;;;;;;8.32;2.63;;;23.60;42.90;;;;;;5021916;28;20026;-80
2021/06/15 09:19:23;;;;;;;3.30;2.45;;;23.70;45.30;;;;;;5020171;28;20164;-78
2021/06/15 09:21:53;;;;;;;4.13;2.75;;;23.70;45.30;;;;;;5022058;28;20488;-78
2021/06/15 09:24:24;;;;;;;3.88;2.45;;;23.80;44.50;;;;;;5026015;28;20033;-79
2021/06/15 09:26:57;;;;;;;5.22;2.60;;;23.80;45.30;;;;;;5028465;28;20032;-78
2021/06/15 09:29:41;;;;;;;6.30;2.92;;;24.00;46.10;;;;;;5022241;28;20382;-77
2021/06/15 09:32:11;;;;;;;3.83;2.35;;;24.20;48.20;;;;;;5029504;28;20041;-78
2021/06/15 09:34:44;;;;;;;2.83;2.40;;;24.30;44.20;;;;;;5027758;28;20112;-78
2021/06/15 09:37:10;;;;;;;4.18;2.55;;;24.30;45.40;;;;;;5034614;28;20032;-80
2021/06/15 09:39:36;;;;;;;2.38;2.00;;;24.20;46.60;;;;;;5025999;28;20037;-79
2021/06/15 09:42:02;;;;;;;3.65;2.03;;;24.30;46.70;;;;;;5024741;28;20036;-78
2021/06/15 09:44:30;;;;;;;8.02;2.45;;;24.40;45.40;;;;;;5024443;28;20101;-78
2021/06/15 09:47:05;;;;;;;4.93;2.20;;;24.30;46.20;;;;;;5025899;28;20500;-79
2021/06/15 09:49:33;;;;;;;4.38;2.50;;;24.30;46.80;;;;;;5026067;28;20393;-79
2021/06/15 09:52:11;;;;;;;4.68;2.90;;;24.30;46.50;;;;;;5023148;28;20084;-77
2021/06/15 09:54:42;;;;;;;2.30;2.10;;;24.20;44.20;;;;;;5023313;28;20099;-78
2021/06/15 09:57:19;;;;;;;4.43;2.35;;;24.20;44.00;;;;;;5025177;28;20298;-78
2021/06/15 10:00:04;;;;;;;3.33;2.33;;;24.30;42.10;;;;;;5024376;28;20026;-78
2021/06/15 10:02:30;;;;;;;3.90;2.30;;;24.40;46.50;;;;;;5028772;28;20037;-78
2021/06/15 10:04:56;;;;;;;6.00;2.22;;;24.60;44.70;;;;;;5030111;28;20080;-77
2021/06/15 10:07:30;;;;;;;7.95;2.60;;;24.70;42.70;;;;;;5030159;28;20063;-78
2021/06/15 10:09:58;;;;;;;3.75;2.20;;;24.70;46.10;;;;;;5021996;28;20056;-77
2021/06/15 10:12:24;;;;;;;;;;;24.60;40.40;;;;;;5024933;28;20045;-78
2021/06/15 10:14:52;;;;;;;25.92;3.28;;;24.40;43.90;;;;;;5022724;28;19910;-78
2021/06/15 10:17:19;;;;;;;3.05;2.25;;;24.50;40.20;;;;;;5028636;28;20028;-77
2021/06/15 10:19:45;;;;;;;5.20;2.33;;;24.70;43.10;;;;;;5030282;28;20037;-77
2021/06/15 10:22:11;;;;;;;2.72;2.20;;;24.60;37.60;;;;;;5030350;28;20033;-77
2021/06/15 10:24:39;;;;;;;3.28;2.75;;;24.70;44.00;;;;;;5028631;28;20660;-77
2021/06/15 10:27:07;;;;;;;3.28;2.30;;;24.70;45.70;;;;;;5029663;28;20097;-77
2021/06/15 10:29:38;;;;;;;2.40;2.17;;;24.70;44.10;;;;;;5024727;28;22134;-78
2021/06/15 10:32:16;;;;;;;5.55;2.40;;;24.90;43.90;;;;;;5020607;28;20041;-78
2021/06/15 10:34:44;;;;;;;3.53;2.25;;;24.70;38.80;;;;;;5028962;28;20021;-78
2021/06/15 10:37:34;;;;;;;3.38;2.10;;;24.70;44.00;;;;;;5022308;28;20154;-78
2021/06/15 10:40:06;;;;;;;5.07;2.22;;;24.80;42.20;;;;;;5032969;28;20049;-78
2021/06/15 10:42:33;;;;;;;4.13;1.92;;;25.00;45.50;;;;;;5032596;28;20652;-78
2021/06/15 10:45:17;;;;;;;4.25;2.17;;;24.90;39.30;;;;;;5042615;28;20060;-78
2021/06/15 10:48:05;;;;;;;3.85;2.22;;;24.90;39.70;;;;;;5023351;28;22345;-78
2021/06/15 10:50:50;;;;;;;2.97;1.80;;;25.10;40.80;;;;;;5023852;28;20034;-77
2021/06/15 10:53:31;;;;;;;2.83;2.38;;;25.10;40.40;;;;;;5039921;28;20056;-78
2021/06/15 10:55:57;;;;;;;2.13;1.85;;;25.20;35.10;;;;;;5021179;28;20037;-77
2021/06/15 10:58:32;;;;;;;2.20;1.83;;;25.30;40.00;;;;;;5028297;28;20029;-78
2021/06/15 11:01:12;;;;;;;3.53;2.13;;;25.40;38.10;;;;;;5019660;28;20068;-78
2021/06/15 11:03:55;;;;;;;4.35;2.80;;;25.40;39.40;;;;;;5023060;28;20079;-77
2021/06/15 11:06:36;;;;;;;6.03;2.50;;;25.30;41.10;;;;;;5020369;28;20142;-77
2021/06/15 11:09:15;;;;;;;3.35;2.35;;;25.40;40.00;;;;;;5022915;28;20013;-78
2021/06/15 11:11:42;;;;;;;2.65;2.45;;;25.30;43.80;;;;;;5041969;28;20021;-79
2021/06/15 11:14:16;;;;;;;3.22;2.25;;;25.20;41.40;;;;;;5024617;28;20293;-78
2021/06/15 11:16:56;;;;;;;4.57;2.63;;;25.20;42.10;;;;;;5023654;28;20776;-78
2021/06/15 11:19:21;;;;;;;3.53;2.42;;;25.40;42.60;;;;;;5018811;28;20651;-78
2021/06/15 11:22:07;;;;;;;18.88;3.88;;;25.40;42.60;;;;;;5026542;28;20056;-78
2021/06/15 11:24:39;;;;;;;3.35;3.05;;;25.30;40.80;;;;;;5021443;28;20029;-79
2021/06/15 11:27:27;;;;;;;4.07;2.85;;;25.40;40.10;;;;;;5044738;28;20017;-78
2021/06/15 11:29:59;;;;;;;4.50;2.60;;;25.60;44.20;;;;;;5026983;28;20029;-78
2021/06/15 11:32:25;;;;;;;3.83;2.58;;;25.60;41.20;;;;;;5027101;28;20069;-78
2021/06/15 11:34:58;;;;;;;5.22;2.90;;;25.60;43.10;;;;;;5027814;28;20056;-79
2021/06/15 11:37:37;;;;;;;4.00;2.40;;;25.50;41.60;;;;;;5027841;28;20032;-78
2021/06/15 11:40:21;;;;;;;3.78;2.40;;;25.40;42.10;;;;;;5018020;28;20048;-79
2021/06/15 11:42:48;;;;;;;4.30;2.20;;;25.60;40.90;;;;;;5030522;28;20037;-78
2021/06/15 11:45:22;;;;;;;6.20;2.42;;;25.50;38.70;;;;;;5021619;28;20026;-78
2021/06/15 11:47:52;;;;;;;6.43;2.40;;;25.50;39.40;;;;;;5020289;28;20633;-78
2021/06/15 11:50:26;;;;;;;3.85;2.42;;;25.60;38.40;;;;;;5018688;28;20061;-78
2021/06/15 11:52:52;;;;;;;3.15;2.17;;;25.60;37.20;;;;;;5038740;28;20404;-77
2021/06/15 11:55:18;;;;;;;3.22;2.08;;;25.50;39.30;;;;;;5018295;28;20030;-79
2021/06/15 11:57:44;;;;;;;3.20;2.35;;;25.60;41.40;;;;;;5019473;28;20037;-78
2021/06/15 12:00:16;;;;;;;2.72;2.33;;;25.50;40.90;;;;;;5022904;28;20025;-78
2021/06/15 12:02:42;;;;;;;5.45;2.60;;;25.50;40.60;;;;;;5021732;28;20095;-79
2021/06/15 12:05:16;;;;;;;3.38;2.40;;;25.50;40.30;;;;;;5021122;28;20052;-78
2021/06/15 12:07:51;;;;;;;4.35;2.53;;;25.50;39.60;;;;;;5025630;28;20029;-78
2021/06/15 12:10:18;;;;;;;2.92;1.98;;;25.60;36.90;;;;;;5017724;28;20036;-80
2021/06/15 12:12:52;;;;;;;4.37;2.20;;;25.60;39.10;;;;;;5026303;28;20531;-77
2021/06/15 12:15:54;;;;;;;4.10;2.42;;;25.60;37.00;;;;;;5022782;28;20021;-77
2021/06/15 12:18:23;;;;;;;3.17;2.13;;;25.60;36.20;;;;;;5026500;28;20111;-78
2021/06/15 12:21:00;;;;;;;4.65;2.20;;;25.60;37.50;;;;;;5022313;28;20040;-78
2021/06/15 12:23:46;;;;;;;4.35;2.30;;;25.60;35.60;;;;;;5023363;28;20076;-78
2021/06/15 12:26:26;;;;;;;3.10;2.10;;;25.60;36.30;;;;;;5037560;28;20034;-78
2021/06/15 12:28:53;;;;;;;2.33;1.92;;;25.60;39.00;;;;;;5023012;28;20021;-78
2021/06/15 12:31:32;;;;;;;2.97;2.20;;;25.70;37.70;;;;;;5022302;28;20530;-78
2021/06/15 12:34:07;;;;;;;2.42;2.22;;;25.70;40.20;;;;;;5019226;28;20324;-78
2021/06/15 12:36:42;;;;;;;2.28;2.08;;;25.60;36.70;;;;;;5021192;28;20033;-79
2021/06/15 12:39:28;;;;;;;2.92;2.50;;;25.60;37.50;;;;;;5024914;28;20033;-78
2021/06/15 12:42:00;;;;;;;5.60;2.22;;;25.60;39.30;;;;;;5015319;28;20033;-78
2021/06/15 12:44:30;;;;;;;2.80;2.50;;;25.60;40.20;;;;;;5016193;28;20071;-78
2021/06/15 12:47:04;;;;;;;2.90;1.92;;;25.60;42.20;;;;;;5020810;28;20523;-78
2021/06/15 12:49:30;;;;;;;3.28;2.30;;;25.60;36.60;;;;;;5018908;28;20109;-79
2021/06/15 12:52:01;;;;;;;3.92;2.20;;;25.70;41.80;;;;;;5018699;28;20480;-78
2021/06/15 12:54:29;;;;;;;3.83;2.35;;;25.70;38.10;;;;;;5022804;28;20082;-77
2021/06/15 12:56:58;;;;;;;3.53;2.10;;;25.60;39.30;;;;;;5022940;28;20528;-78
2021/06/15 12:59:24;;;;;;;3.85;2.40;;;25.60;40.00;;;;;;5022173;28;20081;-78
2021/06/15 13:01:53;;;;;;;2.83;2.10;;;25.60;40.70;;;;;;5028307;28;20097;-78
2021/06/15 13:04:21;;;;;;;2.20;2.00;;;25.60;38.70;;;;;;5028129;28;20536;-78
2021/06/15 13:06:48;;;;;;;4.55;2.40;;;25.60;41.50;;;;;;5023740;28;20029;-77